CYFS

Fort Simpson Airport

Fort Simpson, Northwest Territories, Canada
METAR CYFS 201500Z 12005KT 080V150 15SM FEW050 M24/M28 A3025 RMK SC2 SLP267
Observed Flight Rules
Feb-20 @ 15:00 UTC (2 hours ago) Visual Flight Rules
Wind Visibility Clouds
120° at 5 knots 15 miles
  • Few at 5,000' AGL
Temperatures Readings
Current -24°C / -11°F
Dewpoint -28°C / -18°F
Humidity 70%
Altimeter 30.25" Hg
Pressure 1026.7 hPa
Elevation 169
METAR CYFS 201500Z 12005KT 080V150 15SM FEW050 M24/M28 A3025 RMK SC2 SLP267
Observed Flight Rules
Feb-20 @ 15:00 UTC
(2 hours ago)
VFR
Wind Visibility
120° at 5 knots 15 miles
Clouds
  • Few at 5,000' AGL
Temperature Dewpoint
-24°C / -11°F -28°C / -18°F
Humidity Altimeter Pressure
70% 30.25" Hg 1026.7 hPa